sensor_id;sensor_type;location;lat;lon;timestamp;temperature;humidity
25192;DHT22;13143;50.924;5.320;2023-05-10T00:00:13;15.70;99.90
25192;DHT22;13143;50.924;5.320;2023-05-10T00:02:49;15.70;99.90
25192;DHT22;13143;50.924;5.320;2023-05-10T00:05:22;15.70;99.90
25192;DHT22;13143;50.924;5.320;2023-05-10T00:07:54;15.70;99.90
25192;DHT22;13143;50.924;5.320;2023-05-10T00:10:24;15.60;99.90
25192;DHT22;13143;50.924;5.320;2023-05-10T00:12:50;15.60;99.90
25192;DHT22;13143;50.924;5.320;2023-05-10T00:15:20;15.70;99.90
25192;DHT22;13143;50.924;5.320;2023-05-10T00:17:49;15.60;99.90
25192;DHT22;13143;50.924;5.320;2023-05-10T00:20:15;15.60;99.90
25192;DHT22;13143;50.924;5.320;2023-05-10T00:22:42;15.60;99.90
25192;DHT22;13143;50.924;5.320;2023-05-10T00:25:19;15.60;99.90
25192;DHT22;13143;50.924;5.320;2023-05-10T00:27:50;15.60;99.90
25192;DHT22;13143;50.924;5.320;2023-05-10T00:30:17;15.60;99.90
25192;DHT22;13143;50.924;5.320;2023-05-10T00:32:55;15.60;99.90
25192;DHT22;13143;50.924;5.320;2023-05-10T00:35:25;15.60;99.90
25192;DHT22;13143;50.924;5.320;2023-05-10T00:38:18;15.60;99.90
25192;DHT22;13143;50.924;5.320;2023-05-10T00:40:51;15.60;99.90
25192;DHT22;13143;50.924;5.320;2023-05-10T00:43:24;15.60;99.90
25192;DHT22;13143;50.924;5.320;2023-05-10T00:46:00;15.50;99.90
25192;DHT22;13143;50.924;5.320;2023-05-10T00:48:35;15.60;99.90
25192;DHT22;13143;50.924;5.320;2023-05-10T00:51:05;15.60;99.90
25192;DHT22;13143;50.924;5.320;2023-05-10T00:53:47;15.60;99.90
25192;DHT22;13143;50.924;5.320;2023-05-10T00:56:17;15.60;99.90
25192;DHT22;13143;50.924;5.320;2023-05-10T00:58:59;15.50;99.90
25192;DHT22;13143;50.924;5.320;2023-05-10T01:01:35;15.50;99.90
25192;DHT22;13143;50.924;5.320;2023-05-10T01:04:05;15.50;99.90
25192;DHT22;13143;50.924;5.320;2023-05-10T01:06:46;15.50;99.90
25192;DHT22;13143;50.924;5.320;2023-05-10T01:09:22;15.50;99.90
25192;DHT22;13143;50.924;5.320;2023-05-10T01:11:58;15.50;99.90
25192;DHT22;13143;50.924;5.320;2023-05-10T01:14:35;15.50;99.90
25192;DHT22;13143;50.924;5.320;2023-05-10T01:17:02;15.50;99.90
25192;DHT22;13143;50.924;5.320;2023-05-10T01:19:35;15.50;99.90
25192;DHT22;13143;50.924;5.320;2023-05-10T01:22:36;15.50;99.90
25192;DHT22;13143;50.924;5.320;2023-05-10T01:33:56;15.40;99.90
25192;DHT22;13143;50.924;5.320;2023-05-10T01:36:35;15.40;99.90
25192;DHT22;13143;50.924;5.320;2023-05-10T01:39:32;15.40;99.90
25192;DHT22;13143;50.924;5.320;2023-05-10T01:42:11;15.40;99.90
25192;DHT22;13143;50.924;5.320;2023-05-10T01:47:42;15.40;99.90
25192;DHT22;13143;50.924;5.320;2023-05-10T01:50:15;15.40;99.90
25192;DHT22;13143;50.924;5.320;2023-05-10T01:52:51;15.40;99.90
25192;DHT22;13143;50.924;5.320;2023-05-10T01:55:24;15.40;99.90
25192;DHT22;13143;50.924;5.320;2023-05-10T01:57:56;15.30;99.90
25192;DHT22;13143;50.924;5.320;2023-05-10T02:00:29;15.40;99.90
25192;DHT22;13143;50.924;5.320;2023-05-10T02:02:57;15.40;99.90
25192;DHT22;13143;50.924;5.320;2023-05-10T02:05:28;15.30;99.90
25192;DHT22;13143;50.924;5.320;2023-05-10T02:08:08;15.40;99.90
25192;DHT22;13143;50.924;5.320;2023-05-10T02:10:44;15.30;99.90
25192;DHT22;13143;50.924;5.320;2023-05-10T02:13:24;15.30;99.90
25192;DHT22;13143;50.924;5.320;2023-05-10T02:15:55;15.30;99.90
25192;DHT22;13143;50.924;5.320;2023-05-10T02:18:36;15.30;99.90
25192;DHT22;13143;50.924;5.320;2023-05-10T02:21:10;15.30;99.90
25192;DHT22;13143;50.924;5.320;2023-05-10T02:23:52;15.30;99.90
25192;DHT22;13143;50.924;5.320;2023-05-10T02:26:26;15.30;99.90
25192;DHT22;13143;50.924;5.320;2023-05-10T02:28:57;15.30;99.90
25192;DHT22;13143;50.924;5.320;2023-05-10T02:31:42;15.30;99.90
25192;DHT22;13143;50.924;5.320;2023-05-10T02:34:13;15.30;99.90
25192;DHT22;13143;50.924;5.320;2023-05-10T02:36:48;15.30;99.90
25192;DHT22;13143;50.924;5.320;2023-05-10T02:39:25;15.30;99.90
25192;DHT22;13143;50.924;5.320;2023-05-10T02:42:16;15.30;99.90
25192;DHT22;13143;50.924;5.320;2023-05-10T02:44:47;15.20;99.90
25192;DHT22;13143;50.924;5.320;2023-05-10T02:47:23;15.30;99.90
25192;DHT22;13143;50.924;5.320;2023-05-10T02:49:59;15.30;99.90
25192;DHT22;13143;50.924;5.320;2023-05-10T02:52:40;15.20;99.90
25192;DHT22;13143;50.924;5.320;2023-05-10T02:55:14;15.20;99.90
25192;DHT22;13143;50.924;5.320;2023-05-10T02:58:00;15.20;99.90
25192;DHT22;13143;50.924;5.320;2023-05-10T03:00:27;15.30;99.90
25192;DHT22;13143;50.924;5.320;2023-05-10T03:02:54;15.20;99.90
25192;DHT22;13143;50.924;5.320;2023-05-10T03:05:29;15.20;99.90
25192;DHT22;13143;50.924;5.320;2023-05-10T03:08:10;15.20;99.90
25192;DHT22;13143;50.924;5.320;2023-05-10T03:17:35;15.20;99.90
25192;DHT22;13143;50.924;5.320;2023-05-10T03:20:08;15.20;99.90
25192;DHT22;13143;50.924;5.320;2023-05-10T03:22:47;15.20;99.90
25192;DHT22;13143;50.924;5.320;2023-05-10T03:25:16;15.20;99.90
25192;DHT22;13143;50.924;5.320;2023-05-10T03:27:57;15.20;99.90
25192;DHT22;13143;50.924;5.320;2023-05-10T03:30:27;15.20;99.90
25192;DHT22;13143;50.924;5.320;2023-05-10T03:32:56;15.20;99.90
25192;DHT22;13143;50.924;5.320;2023-05-10T03:35:29;15.20;99.90
25192;DHT22;13143;50.924;5.320;2023-05-10T03:38:11;15.20;99.90
25192;DHT22;13143;50.924;5.320;2023-05-10T03:41:15;15.20;99.90
25192;DHT22;13143;50.924;5.320;2023-05-10T03:43:45;15.20;99.90
25192;DHT22;13143;50.924;5.320;2023-05-10T03:46:14;15.20;99.90
25192;DHT22;13143;50.924;5.320;2023-05-10T03:48:41;15.20;99.90
25192;DHT22;13143;50.924;5.320;2023-05-10T03:51:22;15.20;99.90
25192;DHT22;13143;50.924;5.320;2023-05-10T03:53:51;15.20;99.90
25192;DHT22;13143;50.924;5.320;2023-05-10T03:56:21;15.20;99.90
25192;DHT22;13143;50.924;5.320;2023-05-10T03:58:48;15.20;99.90
25192;DHT22;13143;50.924;5.320;2023-05-10T04:01:17;15.20;99.90
25192;DHT22;13143;50.924;5.320;2023-05-10T04:03:50;15.20;99.90
25192;DHT22;13143;50.924;5.320;2023-05-10T04:06:19;15.20;99.90
25192;DHT22;13143;50.924;5.320;2023-05-10T04:08:46;15.10;99.90
25192;DHT22;13143;50.924;5.320;2023-05-10T04:11:12;15.20;99.90
25192;DHT22;13143;50.924;5.320;2023-05-10T04:13:43;15.20;99.90
25192;DHT22;13143;50.924;5.320;2023-05-10T04:16:13;15.10;99.90
25192;DHT22;13143;50.924;5.320;2023-05-10T04:18:42;15.20;99.90
25192;DHT22;13143;50.924;5.320;2023-05-10T04:21:23;15.10;99.90
25192;DHT22;13143;50.924;5.320;2023-05-10T04:23:52;15.10;99.90
25192;DHT22;13143;50.924;5.320;2023-05-10T04:26:32;15.10;99.90
25192;DHT22;13143;50.924;5.320;2023-05-10T04:29:15;15.10;99.90
25192;DHT22;13143;50.924;5.320;2023-05-10T04:31:44;15.10;99.90
25192;DHT22;13143;50.924;5.320;2023-05-10T04:34:10;15.10;99.90
25192;DHT22;13143;50.924;5.320;2023-05-10T04:36:37;15.10;99.90
25192;DHT22;13143;50.924;5.320;2023-05-10T04:39:12;15.10;99.90
25192;DHT22;13143;50.924;5.320;2023-05-10T04:41:39;15.10;99.90
25192;DHT22;13143;50.924;5.320;2023-05-10T04:44:08;15.10;99.90
25192;DHT22;13143;50.924;5.320;2023-05-10T04:46:38;15.10;99.90
25192;DHT22;13143;50.924;5.320;2023-05-10T04:49:05;15.10;99.90
25192;DHT22;13143;50.924;5.320;2023-05-10T04:51:34;15.10;99.90
25192;DHT22;13143;50.924;5.320;2023-05-10T04:54:04;15.10;99.90
25192;DHT22;13143;50.924;5.320;2023-05-10T04:56:33;15.10;99.90
25192;DHT22;13143;50.924;5.320;2023-05-10T04:59:00;15.00;99.90
25192;DHT22;13143;50.924;5.320;2023-05-10T05:01:29;15.10;99.90
25192;DHT22;13143;50.924;5.320;2023-05-10T05:04:05;15.10;99.90
25192;DHT22;13143;50.924;5.320;2023-05-10T05:06:40;15.00;99.90
25192;DHT22;13143;50.924;5.320;2023-05-10T05:09:21;15.00;99.90
25192;DHT22;13143;50.924;5.320;2023-05-10T05:11:53;15.00;99.90
25192;DHT22;13143;50.924;5.320;2023-05-10T05:14:28;15.00;99.90
25192;DHT22;13143;50.924;5.320;2023-05-10T05:17:00;15.00;99.90
25192;DHT22;13143;50.924;5.320;2023-05-10T05:19:32;15.00;99.90
25192;DHT22;13143;50.924;5.320;2023-05-10T05:22:21;15.00;99.90
25192;DHT22;13143;50.924;5.320;2023-05-10T05:25:09;15.00;99.90
25192;DHT22;13143;50.924;5.320;2023-05-10T05:27:51;15.00;99.90
25192;DHT22;13143;50.924;5.320;2023-05-10T05:30:20;15.00;99.90
25192;DHT22;13143;50.924;5.320;2023-05-10T05:32:46;15.00;99.90
25192;DHT22;13143;50.924;5.320;2023-05-10T05:35:19;15.00;99.90
25192;DHT22;13143;50.924;5.320;2023-05-10T05:37:57;15.00;99.90
25192;DHT22;13143;50.924;5.320;2023-05-10T05:40:35;15.00;99.90
25192;DHT22;13143;50.924;5.320;2023-05-10T05:43:10;15.00;99.90
25192;DHT22;13143;50.924;5.320;2023-05-10T05:45:43;15.00;99.90
25192;DHT22;13143;50.924;5.320;2023-05-10T05:48:21;15.00;99.90
25192;DHT22;13143;50.924;5.320;2023-05-10T05:51:04;15.00;99.90
25192;DHT22;13143;50.924;5.320;2023-05-10T05:54:07;15.00;99.90
25192;DHT22;13143;50.924;5.320;2023-05-10T05:56:40;14.90;99.90
25192;DHT22;13143;50.924;5.320;2023-05-10T05:59:13;15.00;99.90
25192;DHT22;13143;50.924;5.320;2023-05-10T06:01:51;15.00;99.90
25192;DHT22;13143;50.924;5.320;2023-05-10T06:04:26;14.90;99.90
25192;DHT22;13143;50.924;5.320;2023-05-10T06:07:05;14.90;99.90
25192;DHT22;13143;50.924;5.320;2023-05-10T06:09:40;14.90;99.90
25192;DHT22;13143;50.924;5.320;2023-05-10T06:12:28;14.90;99.90
25192;DHT22;13143;50.924;5.320;2023-05-10T06:14:54;14.90;99.90
25192;DHT22;13143;50.924;5.320;2023-05-10T06:17:26;14.90;99.90
25192;DHT22;13143;50.924;5.320;2023-05-10T06:20:08;14.90;99.90
25192;DHT22;13143;50.924;5.320;2023-05-10T06:22:41;14.90;99.90
25192;DHT22;13143;50.924;5.320;2023-05-10T06:25:12;14.90;99.90
25192;DHT22;13143;50.924;5.320;2023-05-10T06:27:46;14.90;99.90
25192;DHT22;13143;50.924;5.320;2023-05-10T06:30:15;15.00;99.90
25192;DHT22;13143;50.924;5.320;2023-05-10T06:32:42;14.90;99.90
25192;DHT22;13143;50.924;5.320;2023-05-10T06:35:15;14.90;99.90
25192;DHT22;13143;50.924;5.320;2023-05-10T06:43:42;14.90;99.90
25192;DHT22;13143;50.924;5.320;2023-05-10T06:46:17;14.90;99.90
25192;DHT22;13143;50.924;5.320;2023-05-10T06:48:52;14.90;99.90
25192;DHT22;13143;50.924;5.320;2023-05-10T06:51:21;14.90;99.90
25192;DHT22;13143;50.924;5.320;2023-05-10T06:53:53;14.90;99.90
25192;DHT22;13143;50.924;5.320;2023-05-10T06:56:38;14.90;99.90
25192;DHT22;13143;50.924;5.320;2023-05-10T06:59:19;15.00;99.90
25192;DHT22;13143;50.924;5.320;2023-05-10T07:01:50;14.90;99.90
25192;DHT22;13143;50.924;5.320;2023-05-10T07:04:17;14.90;99.90
25192;DHT22;13143;50.924;5.320;2023-05-10T07:06:46;15.00;99.90
25192;DHT22;13143;50.924;5.320;2023-05-10T07:12:37;15.00;99.90
25192;DHT22;13143;50.924;5.320;2023-05-10T07:15:05;14.90;99.90
25192;DHT22;13143;50.924;5.320;2023-05-10T07:17:35;15.00;99.90
25192;DHT22;13143;50.924;5.320;2023-05-10T07:20:05;15.00;99.90
25192;DHT22;13143;50.924;5.320;2023-05-10T07:22:38;15.00;99.90
25192;DHT22;13143;50.924;5.320;2023-05-10T07:25:19;14.90;99.90
25192;DHT22;13143;50.924;5.320;2023-05-10T07:27:46;15.00;99.90
25192;DHT22;13143;50.924;5.320;2023-05-10T07:30:43;15.00;99.90
25192;DHT22;13143;50.924;5.320;2023-05-10T07:33:13;15.00;99.90
25192;DHT22;13143;50.924;5.320;2023-05-10T07:35:40;15.00;99.90
25192;DHT22;13143;50.924;5.320;2023-05-10T07:38:07;15.00;99.90
25192;DHT22;13143;50.924;5.320;2023-05-10T07:40:57;15.00;99.90
25192;DHT22;13143;50.924;5.320;2023-05-10T07:43:26;15.00;99.90
25192;DHT22;13143;50.924;5.320;2023-05-10T07:45:59;15.00;99.90
25192;DHT22;13143;50.924;5.320;2023-05-10T07:48:26;15.00;99.90
25192;DHT22;13143;50.924;5.320;2023-05-10T07:50:53;15.00;99.90
25192;DHT22;13143;50.924;5.320;2023-05-10T07:53:25;15.00;99.90
25192;DHT22;13143;50.924;5.320;2023-05-10T07:56:26;15.00;99.90
25192;DHT22;13143;50.924;5.320;2023-05-10T07:58:58;15.00;99.90
25192;DHT22;13143;50.924;5.320;2023-05-10T08:01:30;15.00;99.90
25192;DHT22;13143;50.924;5.320;2023-05-10T08:04:01;15.00;99.90
25192;DHT22;13143;50.924;5.320;2023-05-10T08:06:37;15.00;99.90
25192;DHT22;13143;50.924;5.320;2023-05-10T08:09:09;15.00;99.90
25192;DHT22;13143;50.924;5.320;2023-05-10T08:11:42;15.00;99.90
25192;DHT22;13143;50.924;5.320;2023-05-10T08:14:25;15.00;99.90
25192;DHT22;13143;50.924;5.320;2023-05-10T08:16:57;15.00;99.90
25192;DHT22;13143;50.924;5.320;2023-05-10T08:19:46;15.00;99.90
25192;DHT22;13143;50.924;5.320;2023-05-10T08:22:13;15.00;99.90
25192;DHT22;13143;50.924;5.320;2023-05-10T08:24:42;15.00;99.90
25192;DHT22;13143;50.924;5.320;2023-05-10T08:27:08;15.00;99.90
25192;DHT22;13143;50.924;5.320;2023-05-10T08:29:35;15.00;99.90
25192;DHT22;13143;50.924;5.320;2023-05-10T08:32:01;15.00;99.90
25192;DHT22;13143;50.924;5.320;2023-05-10T08:34:31;15.00;99.90
25192;DHT22;13143;50.924;5.320;2023-05-10T08:37:09;15.00;99.90
25192;DHT22;13143;50.924;5.320;2023-05-10T08:39:50;15.00;99.90
25192;DHT22;13143;50.924;5.320;2023-05-10T08:42:19;15.00;99.90
25192;DHT22;13143;50.924;5.320;2023-05-10T08:44:56;15.00;99.90
25192;DHT22;13143;50.924;5.320;2023-05-10T08:47:44;15.00;99.90
25192;DHT22;13143;50.924;5.320;2023-05-10T08:50:13;14.90;99.90
25192;DHT22;13143;50.924;5.320;2023-05-10T08:53:12;14.90;99.90
25192;DHT22;13143;50.924;5.320;2023-05-10T08:55:42;14.90;99.90
25192;DHT22;13143;50.924;5.320;2023-05-10T08:58:09;14.90;99.90
25192;DHT22;13143;50.924;5.320;2023-05-10T09:00:38;14.90;99.90
25192;DHT22;13143;50.924;5.320;2023-05-10T09:03:08;15.00;99.90
25192;DHT22;13143;50.924;5.320;2023-05-10T09:05:56;14.90;99.90
25192;DHT22;13143;50.924;5.320;2023-05-10T09:08:32;14.90;99.90
25192;DHT22;13143;50.924;5.320;2023-05-10T09:11:05;14.90;99.90
25192;DHT22;13143;50.924;5.320;2023-05-10T09:13:38;14.90;99.90
25192;DHT22;13143;50.924;5.320;2023-05-10T09:16:11;14.90;99.90
25192;DHT22;13143;50.924;5.320;2023-05-10T09:18:55;14.90;99.90
25192;DHT22;13143;50.924;5.320;2023-05-10T09:21:30;14.90;99.90
25192;DHT22;13143;50.924;5.320;2023-05-10T09:24:02;14.90;99.90
25192;DHT22;13143;50.924;5.320;2023-05-10T09:26:32;14.90;99.90
25192;DHT22;13143;50.924;5.320;2023-05-10T09:29:02;14.90;99.90
25192;DHT22;13143;50.924;5.320;2023-05-10T09:31:54;14.90;99.90
25192;DHT22;13143;50.924;5.320;2023-05-10T09:34:31;14.90;99.90
25192;DHT22;13143;50.924;5.320;2023-05-10T09:37:05;14.90;99.90
25192;DHT22;13143;50.924;5.320;2023-05-10T09:39:35;14.90;99.90
25192;DHT22;13143;50.924;5.320;2023-05-10T09:42:07;14.90;99.90
25192;DHT22;13143;50.924;5.320;2023-05-10T09:44:37;14.90;99.90
25192;DHT22;13143;50.924;5.320;2023-05-10T09:47:10;14.90;99.90
25192;DHT22;13143;50.924;5.320;2023-05-10T09:49:52;14.90;99.90
25192;DHT22;13143;50.924;5.320;2023-05-10T09:52:45;14.90;99.90
25192;DHT22;13143;50.924;5.320;2023-05-10T09:58:07;14.90;99.90
25192;DHT22;13143;50.924;5.320;2023-05-10T10:00:42;15.00;99.90
25192;DHT22;13143;50.924;5.320;2023-05-10T10:03:14;15.00;99.90
25192;DHT22;13143;50.924;5.320;2023-05-10T10:05:51;15.00;99.90
25192;DHT22;13143;50.924;5.320;2023-05-10T10:08:25;15.00;99.90
25192;DHT22;13143;50.924;5.320;2023-05-10T10:11:03;15.00;99.90
25192;DHT22;13143;50.924;5.320;2023-05-10T10:13:38;15.00;99.90
25192;DHT22;13143;50.924;5.320;2023-05-10T10:16:20;15.00;99.90
25192;DHT22;13143;50.924;5.320;2023-05-10T10:18:49;15.10;99.90
25192;DHT22;13143;50.924;5.320;2023-05-10T10:21:29;15.10;99.90
25192;DHT22;13143;50.924;5.320;2023-05-10T10:24:08;15.10;99.90
25192;DHT22;13143;50.924;5.320;2023-05-10T10:26:36;15.10;99.90
25192;DHT22;13143;50.924;5.320;2023-05-10T10:29:29;15.10;99.90
25192;DHT22;13143;50.924;5.320;2023-05-10T10:34:57;15.10;99.90
25192;DHT22;13143;50.924;5.320;2023-05-10T10:37:40;15.20;99.90
25192;DHT22;13143;50.924;5.320;2023-05-10T10:40:36;15.20;99.90
25192;DHT22;13143;50.924;5.320;2023-05-10T10:43:25;15.20;99.90
25192;DHT22;13143;50.924;5.320;2023-05-10T10:46:12;15.20;99.90
25192;DHT22;13143;50.924;5.320;2023-05-10T10:49:09;15.20;99.90
25192;DHT22;13143;50.924;5.320;2023-05-10T10:51:39;15.20;99.90
25192;DHT22;13143;50.924;5.320;2023-05-10T10:54:12;15.20;99.90
25192;DHT22;13143;50.924;5.320;2023-05-10T10:57:13;15.20;99.90
25192;DHT22;13143;50.924;5.320;2023-05-10T10:59:43;15.20;99.90
25192;DHT22;13143;50.924;5.320;2023-05-10T11:05:53;15.30;99.90
25192;DHT22;13143;50.924;5.320;2023-05-10T11:08:32;15.30;99.90
25192;DHT22;13143;50.924;5.320;2023-05-10T11:11:19;15.30;99.90
25192;DHT22;13143;50.924;5.320;2023-05-10T11:14:06;15.30;99.90
25192;DHT22;13143;50.924;5.320;2023-05-10T11:16:42;15.30;99.90
25192;DHT22;13143;50.924;5.320;2023-05-10T11:19:15;15.40;99.90
25192;DHT22;13143;50.924;5.320;2023-05-10T11:21:46;15.40;99.90
25192;DHT22;13143;50.924;5.320;2023-05-10T11:24:18;15.40;99.90
25192;DHT22;13143;50.924;5.320;2023-05-10T11:26:51;15.40;99.90
25192;DHT22;13143;50.924;5.320;2023-05-10T11:29:18;15.40;99.90
25192;DHT22;13143;50.924;5.320;2023-05-10T11:31:46;15.40;99.90
25192;DHT22;13143;50.924;5.320;2023-05-10T11:34:35;15.40;99.90
25192;DHT22;13143;50.924;5.320;2023-05-10T11:37:13;15.40;99.90
25192;DHT22;13143;50.924;5.320;2023-05-10T11:39:48;15.40;99.90
25192;DHT22;13143;50.924;5.320;2023-05-10T11:42:15;15.40;99.90
25192;DHT22;13143;50.924;5.320;2023-05-10T11:44:56;15.50;99.90
25192;DHT22;13143;50.924;5.320;2023-05-10T11:47:33;15.50;99.90
25192;DHT22;13143;50.924;5.320;2023-05-10T11:50:05;15.50;99.90
25192;DHT22;13143;50.924;5.320;2023-05-10T11:52:36;15.50;99.90
25192;DHT22;13143;50.924;5.320;2023-05-10T11:55:09;15.50;99.90
25192;DHT22;13143;50.924;5.320;2023-05-10T11:57:41;15.50;99.90
25192;DHT22;13143;50.924;5.320;2023-05-10T12:00:14;15.50;99.90
25192;DHT22;13143;50.924;5.320;2023-05-10T12:02:44;15.60;99.90
25192;DHT22;13143;50.924;5.320;2023-05-10T12:05:13;15.60;99.90
25192;DHT22;13143;50.924;5.320;2023-05-10T12:07:43;15.60;99.90
25192;DHT22;13143;50.924;5.320;2023-05-10T12:10:13;15.60;99.90
25192;DHT22;13143;50.924;5.320;2023-05-10T12:12:45;15.60;99.90
25192;DHT22;13143;50.924;5.320;2023-05-10T12:15:23;15.60;99.90
25192;DHT22;13143;50.924;5.320;2023-05-10T12:17:50;15.60;99.90
25192;DHT22;13143;50.924;5.320;2023-05-10T12:20:21;15.60;99.90
25192;DHT22;13143;50.924;5.320;2023-05-10T12:22:54;15.60;99.90
25192;DHT22;13143;50.924;5.320;2023-05-10T12:25:43;15.60;99.90
25192;DHT22;13143;50.924;5.320;2023-05-10T12:28:12;15.70;99.90
25192;DHT22;13143;50.924;5.320;2023-05-10T12:30:41;15.70;99.90
25192;DHT22;13143;50.924;5.320;2023-05-10T12:33:24;15.70;99.90
25192;DHT22;13143;50.924;5.320;2023-05-10T12:35:54;15.70;99.90
25192;DHT22;13143;50.924;5.320;2023-05-10T12:38:35;15.80;99.90
25192;DHT22;13143;50.924;5.320;2023-05-10T12:41:15;15.70;99.90
25192;DHT22;13143;50.924;5.320;2023-05-10T12:43:42;15.70;99.90
25192;DHT22;13143;50.924;5.320;2023-05-10T12:46:17;15.80;99.90
25192;DHT22;13143;50.924;5.320;2023-05-10T12:48:45;15.80;99.90
25192;DHT22;13143;50.924;5.320;2023-05-10T12:51:15;15.80;99.90
25192;DHT22;13143;50.924;5.320;2023-05-10T12:53:45;15.80;99.90
25192;DHT22;13143;50.924;5.320;2023-05-10T12:56:15;15.80;99.90
25192;DHT22;13143;50.924;5.320;2023-05-10T12:58:42;15.90;99.90
25192;DHT22;13143;50.924;5.320;2023-05-10T13:01:14;15.90;99.90
25192;DHT22;13143;50.924;5.320;2023-05-10T13:03:47;15.90;99.90
25192;DHT22;13143;50.924;5.320;2023-05-10T13:06:13;15.90;99.90
25192;DHT22;13143;50.924;5.320;2023-05-10T13:08:40;15.90;99.90
25192;DHT22;13143;50.924;5.320;2023-05-10T13:11:06;15.90;99.90
25192;DHT22;13143;50.924;5.320;2023-05-10T13:13:42;15.90;99.90
25192;DHT22;13143;50.924;5.320;2023-05-10T13:16:12;16.00;99.90
25192;DHT22;13143;50.924;5.320;2023-05-10T13:18:50;16.00;99.90
25192;DHT22;13143;50.924;5.320;2023-05-10T13:21:19;16.00;99.90
25192;DHT22;13143;50.924;5.320;2023-05-10T13:23:53;16.00;99.90
25192;DHT22;13143;50.924;5.320;2023-05-10T13:26:28;16.00;99.90
25192;DHT22;13143;50.924;5.320;2023-05-10T13:29:04;16.00;99.90
25192;DHT22;13143;50.924;5.320;2023-05-10T13:31:31;16.10;99.90
25192;DHT22;13143;50.924;5.320;2023-05-10T13:33:58;16.10;99.90
25192;DHT22;13143;50.924;5.320;2023-05-10T13:36:26;16.10;99.90
25192;DHT22;13143;50.924;5.320;2023-05-10T13:38:56;16.20;99.90
25192;DHT22;13143;50.924;5.320;2023-05-10T13:41:25;16.20;99.90
25192;DHT22;13143;50.924;5.320;2023-05-10T13:43:51;16.20;99.90
25192;DHT22;13143;50.924;5.320;2023-05-10T13:46:41;16.20;99.90
25192;DHT22;13143;50.924;5.320;2023-05-10T13:49:14;16.20;99.90
25192;DHT22;13143;50.924;5.320;2023-05-10T13:51:44;16.20;99.90
25192;DHT22;13143;50.924;5.320;2023-05-10T13:54:11;16.30;99.90
25192;DHT22;13143;50.924;5.320;2023-05-10T13:56:38;16.30;99.90
25192;DHT22;13143;50.924;5.320;2023-05-10T13:59:28;16.30;99.90
25192;DHT22;13143;50.924;5.320;2023-05-10T14:02:01;16.30;99.90
25192;DHT22;13143;50.924;5.320;2023-05-10T14:04:33;16.30;99.90
25192;DHT22;13143;50.924;5.320;2023-05-10T14:07:07;16.30;99.90
25192;DHT22;13143;50.924;5.320;2023-05-10T14:09:51;16.30;99.90
25192;DHT22;13143;50.924;5.320;2023-05-10T14:12:27;16.40;99.90
25192;DHT22;13143;50.924;5.320;2023-05-10T14:15:05;16.40;99.90
25192;DHT22;13143;50.924;5.320;2023-05-10T14:17:35;16.40;99.90
25192;DHT22;13143;50.924;5.320;2023-05-10T14:20:31;16.40;99.90
25192;DHT22;13143;50.924;5.320;2023-05-10T14:23:03;16.40;99.90
25192;DHT22;13143;50.924;5.320;2023-05-10T14:25:32;16.50;99.90
25192;DHT22;13143;50.924;5.320;2023-05-10T14:28:10;16.50;99.90
25192;DHT22;13143;50.924;5.320;2023-05-10T14:30:43;16.50;99.90
25192;DHT22;13143;50.924;5.320;2023-05-10T14:33:16;16.50;99.90
25192;DHT22;13143;50.924;5.320;2023-05-10T14:35:55;16.50;99.90
25192;DHT22;13143;50.924;5.320;2023-05-10T14:38:26;16.60;99.90
25192;DHT22;13143;50.924;5.320;2023-05-10T14:40:55;16.60;99.90
25192;DHT22;13143;50.924;5.320;2023-05-10T14:43:27;16.60;99.90
25192;DHT22;13143;50.924;5.320;2023-05-10T14:46:02;16.60;99.90
25192;DHT22;13143;50.924;5.320;2023-05-10T14:48:32;16.60;99.90
25192;DHT22;13143;50.924;5.320;2023-05-10T14:51:01;16.70;99.90
25192;DHT22;13143;50.924;5.320;2023-05-10T14:53:27;16.70;99.90
25192;DHT22;13143;50.924;5.320;2023-05-10T14:55:57;16.70;99.90
25192;DHT22;13143;50.924;5.320;2023-05-10T14:58:24;16.70;99.90
25192;DHT22;13143;50.924;5.320;2023-05-10T15:00:51;16.70;99.90
25192;DHT22;13143;50.924;5.320;2023-05-10T15:03:20;16.80;99.90
25192;DHT22;13143;50.924;5.320;2023-05-10T15:05:56;16.90;99.90
25192;DHT22;13143;50.924;5.320;2023-05-10T15:08:44;16.90;99.90
25192;DHT22;13143;50.924;5.320;2023-05-10T15:11:16;16.90;99.90
25192;DHT22;13143;50.924;5.320;2023-05-10T15:13:46;16.90;99.90
25192;DHT22;13143;50.924;5.320;2023-05-10T15:16:22;16.90;99.90
25192;DHT22;13143;50.924;5.320;2023-05-10T15:19:00;16.90;99.90
25192;DHT22;13143;50.924;5.320;2023-05-10T15:21:38;17.00;99.90
25192;DHT22;13143;50.924;5.320;2023-05-10T15:24:11;16.90;99.90
25192;DHT22;13143;50.924;5.320;2023-05-10T15:26:49;17.00;99.90
25192;DHT22;13143;50.924;5.320;2023-05-10T15:29:24;17.00;99.90
25192;DHT22;13143;50.924;5.320;2023-05-10T15:32:04;17.00;99.90
25192;DHT22;13143;50.924;5.320;2023-05-10T15:34:39;17.10;99.90
25192;DHT22;13143;50.924;5.320;2023-05-10T15:37:09;17.00;99.90
25192;DHT22;13143;50.924;5.320;2023-05-10T15:39:44;17.10;99.90
25192;DHT22;13143;50.924;5.320;2023-05-10T15:42:29;17.10;99.90
25192;DHT22;13143;50.924;5.320;2023-05-10T15:45:05;17.10;99.90
25192;DHT22;13143;50.924;5.320;2023-05-10T15:47:40;17.10;99.90
25192;DHT22;13143;50.924;5.320;2023-05-10T15:50:18;17.20;99.90
25192;DHT22;13143;50.924;5.320;2023-05-10T15:52:53;17.20;99.90
25192;DHT22;13143;50.924;5.320;2023-05-10T15:55:22;17.20;99.90
25192;DHT22;13143;50.924;5.320;2023-05-10T15:57:55;17.20;99.90
25192;DHT22;13143;50.924;5.320;2023-05-10T16:00:27;17.20;99.90
25192;DHT22;13143;50.924;5.320;2023-05-10T16:03:03;17.20;99.90
25192;DHT22;13143;50.924;5.320;2023-05-10T16:05:31;17.20;99.90
25192;DHT22;13143;50.924;5.320;2023-05-10T16:08:02;17.30;99.90
25192;DHT22;13143;50.924;5.320;2023-05-10T16:10:31;17.30;99.90
25192;DHT22;13143;50.924;5.320;2023-05-10T16:13:03;17.30;99.90
25192;DHT22;13143;50.924;5.320;2023-05-10T16:15:30;17.30;99.90
25192;DHT22;13143;50.924;5.320;2023-05-10T16:17:59;17.40;99.90
25192;DHT22;13143;50.924;5.320;2023-05-10T16:20:26;17.40;99.90
25192;DHT22;13143;50.924;5.320;2023-05-10T16:22:55;17.40;99.90
25192;DHT22;13143;50.924;5.320;2023-05-10T16:25:36;17.40;99.90
25192;DHT22;13143;50.924;5.320;2023-05-10T16:28:06;17.40;99.90
25192;DHT22;13143;50.924;5.320;2023-05-10T16:30:44;17.40;99.90
25192;DHT22;13143;50.924;5.320;2023-05-10T16:33:12;17.40;99.90
25192;DHT22;13143;50.924;5.320;2023-05-10T16:35:40;17.40;99.90
25192;DHT22;13143;50.924;5.320;2023-05-10T16:40:54;17.50;99.90
25192;DHT22;13143;50.924;5.320;2023-05-10T16:43:34;17.50;99.90
25192;DHT22;13143;50.924;5.320;2023-05-10T16:46:14;17.50;99.90
25192;DHT22;13143;50.924;5.320;2023-05-10T16:48:44;17.50;99.90
25192;DHT22;13143;50.924;5.320;2023-05-10T16:51:32;17.50;99.90
25192;DHT22;13143;50.924;5.320;2023-05-10T16:54:09;17.50;99.90